

Wyoming Mesonet
Water Resources Data System and State Climate Office
SEO WACNet, UW USACE UMRB, USDA-ARS, BLM
| Wind | Soil | |||||||||||||||||||
| Temp | Precip | Speed | Dir | Gust | Dir | Humidity | Pressure | Solar | Snow | Temperature (Deg F) | Moisture (%) | |||||||||
| Date Time (MST) | (F) | (in) | (mph) | (deg) | (mph) | (deg) | (%) | (Mbars) | (w/m^2) | (in) | 5cm | 10cm | 20cm | 50cm | 1m | 5cm | 10cm | 20cm | 50cm | 1m |
| 2026-08-30 00:00:00 | 62.85 | 0.00 | 1.82 | 191 | 6.21 | 142 | 60.8 | 875.0 | 0.0 | 0.0 | 79.52 | 81.32 | 80.06 | 77.72 | 75.56 | 13.2% | 10.0% | 21.1% | 13.9% | 15.6% |
| 2026-08-30 01:00:00 | 59.94 | 0.00 | 4.14 | 267 | 8.57 | 248 | 72.4 | 876.0 | 0.0 | 0.0 | 78.26 | 80.60 | 80.06 | 77.90 | 75.56 | 13.3% | 9.9% | 21.1% | 13.9% | 15.5% |
| 2026-08-30 02:00:00 | 56.77 | 0.00 | 1.81 | 203 | 4.35 | 262 | 71.7 | 876.0 | 0.0 | 0.0 | 77.00 | 79.70 | 79.88 | 77.90 | 75.56 | 13.2% | 9.8% | 21.1% | 13.9% | 15.6% |
| 2026-08-30 03:00:00 | 57.02 | 0.00 | 2.22 | 259 | 6.09 | 258 | 73.8 | 876.0 | 0.0 | 0.0 | 75.92 | 78.80 | 79.88 | 77.90 | 75.56 | 13.2% | 9.5% | 21.2% | 13.9% | 15.6% |
| 2026-08-30 04:00:00 | 55.27 | 0.00 | 0.68 | 204 | 6.46 | 248 | 71.9 | 876.0 | 0.0 | 0.0 | 74.84 | 78.08 | 79.70 | 77.90 | 75.56 | 13.1% | 9.6% | 21.2% | 13.9% | 15.4% |
| 2026-08-30 05:00:00 | 54.90 | 0.00 | 1.76 | 198 | 6.21 | 260 | 77.8 | 876.0 | 0.0 | 0.0 | 73.94 | 77.36 | 79.52 | 77.90 | 75.56 | 13.1% | 9.3% | 21.1% | 13.9% | 15.5% |
| 2026-08-30 06:00:00 | 55.76 | 0.00 | 2.00 | 172 | 9.44 | 252 | 76.9 | 877.0 | 13.9 | 0.0 | 73.40 | 76.64 | 79.34 | 77.90 | 75.38 | 13.0% | 9.3% | 21.2% | 13.8% | 15.6% |
| 2026-08-30 07:00:00 | 61.79 | 0.00 | 5.04 | 138 | 7.70 | 156 | 63.8 | 877.0 | 154.1 | 0.0 | 72.86 | 76.10 | 78.98 | 77.90 | 75.56 | 12.9% | 9.2% | 21.2% | 13.9% | 15.5% |
| 2026-08-30 08:00:00 | 68.50 | 0.00 | 9.15 | 145 | 11.55 | 161 | 51.2 | 876.0 | 419.1 | 0.0 | 72.86 | 75.56 | 78.62 | 77.90 | 75.56 | 13.0% | 9.1% | 21.2% | 13.8% | 15.6% |
| 2026-08-30 09:00:00 | 74.84 | 0.00 | 6.87 | 158 | 11.68 | 146 | 40.8 | 876.0 | 616.7 | 0.0 | 74.30 | 75.56 | 78.44 | 77.90 | 75.56 | 13.0% | 9.1% | 21.2% | 13.9% | 15.5% |
| 2026-08-30 10:00:00 | 79.34 | 0.00 | 4.44 | 337 | 14.16 | 148 | 35.1 | 876.0 | 706.4 | 0.0 | 76.82 | 76.10 | 78.26 | 77.90 | 75.56 | 13.2% | 9.1% | 21.2% | 13.9% | 15.5% |
| 2026-08-30 11:00:00 | 84.29 | 0.00 | 3.66 | 288 | 12.80 | 333 | 29.8 | 875.0 | 902.0 | 0.0 | 80.24 | 77.18 | 78.08 | 77.90 | 75.56 | 13.2% | 9.3% | 21.2% | 13.9% | 15.6% |
| 2026-08-30 12:00:00 | 84.42 | 0.00 | 17.74 | 199 | 28.32 | 204 | 19.8 | 875.0 | 282.6 | 0.0 | 83.84 | 78.62 | 77.90 | 77.90 | 75.38 | 13.3% | 9.6% | 21.2% | 13.9% | 15.5% |
| 2026-08-30 13:00:00 | 71.67 | 0.00 | 30.36 | 312 | 44.36 | 312 | 45.5 | 877.0 | 481.0 | 0.0 | 85.28 | 80.24 | 77.90 | 77.72 | 75.56 | 13.4% | 9.8% | 21.2% | 13.9% | 15.6% |
| 2026-08-30 14:00:00 | 68.04 | 0.00 | 18.70 | 354 | 43.24 | 312 | 50.7 | 878.0 | 626.7 | 0.0 | 86.00 | 81.32 | 77.90 | 77.54 | 75.74 | 13.5% | 10.1% | 21.2% | 13.9% | 15.5% |
| 2026-08-30 15:00:00 | 70.34 | 0.00 | 13.94 | 9 | 25.34 | 326 | 48.0 | 878.0 | 401.5 | 0.0 | 86.00 | 81.86 | 78.08 | 77.72 | 75.56 | 13.5% | 10.1% | 21.2% | 13.9% | 15.5% |
| 2026-08-30 16:00:00 | 71.60 | 0.00 | 9.33 | 31 | 18.88 | 17 | 42.9 | 877.0 | 447.8 | 0.0 | 86.72 | 82.40 | 78.26 | 77.54 | 75.56 | 13.5% | 10.3% | 21.2% | 13.9% | 15.6% |
| 2026-08-30 17:00:00 | 73.83 | 0.00 | 6.88 | 16 | 12.55 | 18 | 40.5 | 878.0 | 275.2 | 0.0 | 86.72 | 82.76 | 78.44 | 77.54 | 75.56 | 13.6% | 10.5% | 21.2% | 13.8% | 15.5% |
| 2026-08-30 18:00:00 | 72.34 | 0.00 | 7.27 | 40 | 13.91 | 332 | 42.2 | 878.0 | 108.6 | 0.0 | 85.82 | 83.12 | 78.62 | 77.54 | 75.56 | 13.5% | 10.2% | 21.2% | 13.9% | 15.6% |
| 2026-08-30 19:00:00 | 68.13 | 0.00 | 5.91 | 75 | 10.19 | 58 | 46.8 | 878.0 | 0.0 | 0.0 | 84.38 | 82.94 | 78.80 | 77.54 | 75.56 | 13.4% | 10.3% | 21.2% | 13.9% | 15.6% |
| 2026-08-30 20:00:00 | 64.17 | 0.00 | 1.78 | 226 | 8.57 | 88 | 51.1 | 879.0 | 0.0 | 0.0 | 82.58 | 82.40 | 78.98 | 77.36 | 75.56 | 13.4% | 10.1% | 21.2% | 13.9% | 15.6% |
| 2026-08-30 21:00:00 | 61.79 | 0.00 | 3.54 | 247 | 10.81 | 333 | 54.6 | 879.0 | 0.0 | 0.0 | 80.78 | 81.68 | 79.16 | 77.36 | 75.56 | 13.3% | 10.1% | 21.2% | 13.9% | 15.6% |
| 2026-08-30 22:00:00 | 57.67 | 0.00 | 1.22 | 249 | 5.59 | 102 | 58.0 | 879.0 | 0.0 | 0.0 | 78.98 | 80.78 | 78.98 | 77.54 | 75.56 | 13.2% | 9.9% | 21.2% | 13.9% | 15.5% |
| 2026-08-30 23:00:00 | 55.29 | 0.00 | 4.95 | 240 | 5.34 | 244 | 62.2 | 880.0 | 0.0 | 0.0 | 77.54 | 79.88 | 79.34 | 77.54 | 75.56 | 13.1% | 9.7% | 21.2% | 13.8% | 15.4% |